Rhayader, United Kingdom
Current Conditions -  °F | °C
As of 7:50 AM on Friday 19 Dec 2014 (Local Time) from EGOS Reporting Station
Few Clouds Few Clouds  
Wind Chill:   Ceiling: Unl
Heat Index:   Visibility: 6mi
Dew Point:   Wind: 10mph
Humidity: 76%   Direction: 250°WSW
Pressure: 29.85"   Gusts: NA
Location:  52.3°N, 3.51°W
Report Text: EGOS 190750Z AUTO 25009KT 9999 FEW050/// 05/01 Q1011
Loading
Personal Weather Stations






























Interactive Weather Map New forecast layout! Learn more

10-Day Weather Forecast

Advertisements
Track Severe Weather on mobile